sensor_id;sensor_type;location;lat;lon;timestamp;P1;durP1;ratioP1;P2;durP2;ratioP2
11907;SDS011;6014;47.690;9.130;2024-01-11T00:02:17;16.57;;;7.73;;
11907;SDS011;6014;47.690;9.130;2024-01-11T00:04:45;15.17;;;7.60;;
11907;SDS011;6014;47.690;9.130;2024-01-11T00:07:15;16.03;;;7.40;;
11907;SDS011;6014;47.690;9.130;2024-01-11T00:09:43;17.30;;;7.80;;
11907;SDS011;6014;47.690;9.130;2024-01-11T00:12:11;22.60;;;7.53;;
11907;SDS011;6014;47.690;9.130;2024-01-11T00:14:40;12.77;;;7.50;;
11907;SDS011;6014;47.690;9.130;2024-01-11T00:17:08;19.17;;;8.90;;
11907;SDS011;6014;47.690;9.130;2024-01-11T00:19:37;15.73;;;8.50;;
11907;SDS011;6014;47.690;9.130;2024-01-11T00:22:05;20.17;;;9.97;;
11907;SDS011;6014;47.690;9.130;2024-01-11T00:24:35;17.83;;;7.87;;
11907;SDS011;6014;47.690;9.130;2024-01-11T00:27:05;15.77;;;7.87;;
11907;SDS011;6014;47.690;9.130;2024-01-11T00:29:33;13.97;;;7.60;;
11907;SDS011;6014;47.690;9.130;2024-01-11T00:32:03;18.63;;;7.73;;
11907;SDS011;6014;47.690;9.130;2024-01-11T00:34:32;19.40;;;8.43;;
11907;SDS011;6014;47.690;9.130;2024-01-11T00:37:02;15.83;;;7.20;;
11907;SDS011;6014;47.690;9.130;2024-01-11T00:39:31;17.37;;;9.60;;
11907;SDS011;6014;47.690;9.130;2024-01-11T00:42:01;13.73;;;8.20;;
11907;SDS011;6014;47.690;9.130;2024-01-11T00:44:29;15.20;;;7.20;;
11907;SDS011;6014;47.690;9.130;2024-01-11T00:46:58;15.97;;;7.97;;
11907;SDS011;6014;47.690;9.130;2024-01-11T00:49:26;17.73;;;8.57;;
11907;SDS011;6014;47.690;9.130;2024-01-11T00:51:56;17.53;;;7.77;;
11907;SDS011;6014;47.690;9.130;2024-01-11T00:54:24;14.33;;;8.07;;
11907;SDS011;6014;47.690;9.130;2024-01-11T00:56:52;14.73;;;8.47;;
11907;SDS011;6014;47.690;9.130;2024-01-11T00:59:22;14.33;;;8.20;;
11907;SDS011;6014;47.690;9.130;2024-01-11T01:01:50;18.73;;;8.20;;
11907;SDS011;6014;47.690;9.130;2024-01-11T01:04:18;14.03;;;7.97;;
11907;SDS011;6014;47.690;9.130;2024-01-11T01:06:47;15.23;;;7.73;;
11907;SDS011;6014;47.690;9.130;2024-01-11T01:09:15;14.70;;;8.00;;
11907;SDS011;6014;47.690;9.130;2024-01-11T01:11:43;20.73;;;9.27;;
11907;SDS011;6014;47.690;9.130;2024-01-11T01:14:12;16.67;;;8.37;;
11907;SDS011;6014;47.690;9.130;2024-01-11T01:16:43;14.97;;;7.67;;
11907;SDS011;6014;47.690;9.130;2024-01-11T01:19:11;12.00;;;5.97;;
11907;SDS011;6014;47.690;9.130;2024-01-11T01:21:40;18.73;;;9.40;;
11907;SDS011;6014;47.690;9.130;2024-01-11T01:24:08;19.77;;;8.07;;
11907;SDS011;6014;47.690;9.130;2024-01-11T01:26:37;17.80;;;8.90;;
11907;SDS011;6014;47.690;9.130;2024-01-11T01:29:06;16.10;;;6.90;;
11907;SDS011;6014;47.690;9.130;2024-01-11T01:31:34;16.50;;;8.53;;
11907;SDS011;6014;47.690;9.130;2024-01-11T01:34:06;15.97;;;7.90;;
11907;SDS011;6014;47.690;9.130;2024-01-11T01:36:35;14.53;;;6.73;;
11907;SDS011;6014;47.690;9.130;2024-01-11T01:39:03;15.77;;;8.23;;
11907;SDS011;6014;47.690;9.130;2024-01-11T01:41:31;14.10;;;7.13;;
11907;SDS011;6014;47.690;9.130;2024-01-11T01:44:00;15.20;;;7.97;;
11907;SDS011;6014;47.690;9.130;2024-01-11T01:46:28;16.53;;;8.43;;
11907;SDS011;6014;47.690;9.130;2024-01-11T01:48:57;18.53;;;10.03;;
11907;SDS011;6014;47.690;9.130;2024-01-11T01:51:29;19.20;;;8.67;;
11907;SDS011;6014;47.690;9.130;2024-01-11T01:53:58;16.10;;;9.10;;
11907;SDS011;6014;47.690;9.130;2024-01-11T01:56:30;15.17;;;8.70;;
11907;SDS011;6014;47.690;9.130;2024-01-11T01:58:58;13.53;;;8.03;;
11907;SDS011;6014;47.690;9.130;2024-01-11T02:01:28;19.10;;;8.70;;
11907;SDS011;6014;47.690;9.130;2024-01-11T02:03:57;21.20;;;10.70;;
11907;SDS011;6014;47.690;9.130;2024-01-11T02:06:28;20.27;;;9.77;;
11907;SDS011;6014;47.690;9.130;2024-01-11T02:08:59;17.07;;;8.73;;
11907;SDS011;6014;47.690;9.130;2024-01-11T02:11:29;20.13;;;10.00;;
11907;SDS011;6014;47.690;9.130;2024-01-11T02:13:58;16.30;;;10.47;;
11907;SDS011;6014;47.690;9.130;2024-01-11T02:16:27;18.97;;;6.97;;
11907;SDS011;6014;47.690;9.130;2024-01-11T02:18:55;22.17;;;10.67;;
11907;SDS011;6014;47.690;9.130;2024-01-11T02:21:23;21.07;;;10.70;;
11907;SDS011;6014;47.690;9.130;2024-01-11T02:24:07;25.57;;;11.57;;
11907;SDS011;6014;47.690;9.130;2024-01-11T02:26:35;19.43;;;10.47;;
11907;SDS011;6014;47.690;9.130;2024-01-11T02:29:04;13.77;;;7.87;;
11907;SDS011;6014;47.690;9.130;2024-01-11T02:31:32;24.73;;;11.30;;
11907;SDS011;6014;47.690;9.130;2024-01-11T02:34:00;20.80;;;10.23;;
11907;SDS011;6014;47.690;9.130;2024-01-11T02:36:29;14.17;;;6.73;;
11907;SDS011;6014;47.690;9.130;2024-01-11T02:38:57;21.30;;;9.03;;
11907;SDS011;6014;47.690;9.130;2024-01-11T02:41:27;21.77;;;10.97;;
11907;SDS011;6014;47.690;9.130;2024-01-11T02:43:56;24.43;;;10.47;;
11907;SDS011;6014;47.690;9.130;2024-01-11T02:46:24;19.73;;;9.73;;
11907;SDS011;6014;47.690;9.130;2024-01-11T02:48:52;21.77;;;10.23;;
11907;SDS011;6014;47.690;9.130;2024-01-11T02:51:21;24.33;;;11.90;;
11907;SDS011;6014;47.690;9.130;2024-01-11T02:53:49;22.93;;;11.43;;
11907;SDS011;6014;47.690;9.130;2024-01-11T02:56:17;22.43;;;10.97;;
11907;SDS011;6014;47.690;9.130;2024-01-11T02:58:47;23.07;;;11.90;;
11907;SDS011;6014;47.690;9.130;2024-01-11T03:01:15;21.07;;;9.77;;
11907;SDS011;6014;47.690;9.130;2024-01-11T03:03:44;25.13;;;12.37;;
11907;SDS011;6014;47.690;9.130;2024-01-11T03:06:15;19.23;;;9.47;;
11907;SDS011;6014;47.690;9.130;2024-01-11T03:08:48;20.43;;;10.93;;
11907;SDS011;6014;47.690;9.130;2024-01-11T03:11:16;19.40;;;9.97;;
11907;SDS011;6014;47.690;9.130;2024-01-11T03:13:44;19.33;;;9.60;;
11907;SDS011;6014;47.690;9.130;2024-01-11T03:16:14;22.87;;;10.83;;
11907;SDS011;6014;47.690;9.130;2024-01-11T03:18:42;20.10;;;10.00;;
11907;SDS011;6014;47.690;9.130;2024-01-11T03:21:11;22.40;;;11.07;;
11907;SDS011;6014;47.690;9.130;2024-01-11T03:23:39;19.00;;;11.37;;
11907;SDS011;6014;47.690;9.130;2024-01-11T03:26:12;18.83;;;9.87;;
11907;SDS011;6014;47.690;9.130;2024-01-11T03:28:41;18.60;;;8.53;;
11907;SDS011;6014;47.690;9.130;2024-01-11T03:31:09;14.87;;;10.03;;
11907;SDS011;6014;47.690;9.130;2024-01-11T03:33:39;18.87;;;9.73;;
11907;SDS011;6014;47.690;9.130;2024-01-11T03:36:08;18.93;;;10.53;;
11907;SDS011;6014;47.690;9.130;2024-01-11T03:38:37;18.53;;;10.30;;
11907;SDS011;6014;47.690;9.130;2024-01-11T03:41:09;19.53;;;9.47;;
11907;SDS011;6014;47.690;9.130;2024-01-11T03:51:45;19.60;;;10.93;;
11907;SDS011;6014;47.690;9.130;2024-01-11T03:54:14;24.80;;;11.17;;
11907;SDS011;6014;47.690;9.130;2024-01-11T03:56:42;22.07;;;11.03;;
11907;SDS011;6014;47.690;9.130;2024-01-11T03:59:10;25.27;;;11.90;;
11907;SDS011;6014;47.690;9.130;2024-01-11T04:01:39;26.77;;;11.60;;
11907;SDS011;6014;47.690;9.130;2024-01-11T04:04:08;20.07;;;10.90;;
11907;SDS011;6014;47.690;9.130;2024-01-11T04:06:38;21.70;;;11.30;;
11907;SDS011;6014;47.690;9.130;2024-01-11T04:09:09;28.37;;;11.40;;
11907;SDS011;6014;47.690;9.130;2024-01-11T04:11:37;23.50;;;12.13;;
11907;SDS011;6014;47.690;9.130;2024-01-11T04:14:06;22.30;;;12.00;;
11907;SDS011;6014;47.690;9.130;2024-01-11T04:16:34;22.47;;;12.60;;
11907;SDS011;6014;47.690;9.130;2024-01-11T04:19:08;22.10;;;12.90;;
11907;SDS011;6014;47.690;9.130;2024-01-11T04:21:37;25.50;;;12.80;;
11907;SDS011;6014;47.690;9.130;2024-01-11T04:24:05;26.33;;;12.90;;
11907;SDS011;6014;47.690;9.130;2024-01-11T04:26:35;23.27;;;10.63;;
11907;SDS011;6014;47.690;9.130;2024-01-11T04:29:04;23.53;;;10.90;;
11907;SDS011;6014;47.690;9.130;2024-01-11T04:31:32;24.73;;;12.67;;
11907;SDS011;6014;47.690;9.130;2024-01-11T04:34:00;26.73;;;12.83;;
11907;SDS011;6014;47.690;9.130;2024-01-11T04:36:29;20.73;;;10.93;;
11907;SDS011;6014;47.690;9.130;2024-01-11T04:38:57;17.97;;;10.50;;
11907;SDS011;6014;47.690;9.130;2024-01-11T04:41:25;25.87;;;13.30;;
11907;SDS011;6014;47.690;9.130;2024-01-11T04:43:55;22.83;;;11.40;;
11907;SDS011;6014;47.690;9.130;2024-01-11T04:46:23;18.23;;;10.50;;
11907;SDS011;6014;47.690;9.130;2024-01-11T04:48:52;30.43;;;12.47;;
11907;SDS011;6014;47.690;9.130;2024-01-11T04:51:21;24.93;;;11.03;;
11907;SDS011;6014;47.690;9.130;2024-01-11T04:53:56;20.80;;;10.40;;
11907;SDS011;6014;47.690;9.130;2024-01-11T04:56:24;22.70;;;11.43;;
11907;SDS011;6014;47.690;9.130;2024-01-11T04:58:53;21.30;;;11.50;;
11907;SDS011;6014;47.690;9.130;2024-01-11T05:01:22;20.63;;;10.53;;
11907;SDS011;6014;47.690;9.130;2024-01-11T05:03:50;20.63;;;11.50;;
11907;SDS011;6014;47.690;9.130;2024-01-11T05:06:27;20.97;;;10.67;;
11907;SDS011;6014;47.690;9.130;2024-01-11T05:09:07;24.37;;;11.77;;
11907;SDS011;6014;47.690;9.130;2024-01-11T05:11:36;21.80;;;11.10;;
11907;SDS011;6014;47.690;9.130;2024-01-11T05:14:04;20.83;;;12.03;;
11907;SDS011;6014;47.690;9.130;2024-01-11T05:16:34;27.40;;;11.80;;
11907;SDS011;6014;47.690;9.130;2024-01-11T05:19:03;21.80;;;12.77;;
11907;SDS011;6014;47.690;9.130;2024-01-11T05:21:31;23.43;;;11.77;;
11907;SDS011;6014;47.690;9.130;2024-01-11T05:24:00;22.07;;;11.23;;
11907;SDS011;6014;47.690;9.130;2024-01-11T05:26:28;23.33;;;12.13;;
11907;SDS011;6014;47.690;9.130;2024-01-11T05:28:56;26.87;;;12.73;;
11907;SDS011;6014;47.690;9.130;2024-01-11T05:31:24;21.53;;;11.80;;
11907;SDS011;6014;47.690;9.130;2024-01-11T05:33:54;21.63;;;11.43;;
11907;SDS011;6014;47.690;9.130;2024-01-11T05:36:23;26.10;;;12.20;;
11907;SDS011;6014;47.690;9.130;2024-01-11T05:38:51;19.20;;;10.83;;
11907;SDS011;6014;47.690;9.130;2024-01-11T05:41:19;24.53;;;12.33;;
11907;SDS011;6014;47.690;9.130;2024-01-11T05:43:48;22.00;;;12.30;;
11907;SDS011;6014;47.690;9.130;2024-01-11T05:46:17;24.43;;;11.10;;
11907;SDS011;6014;47.690;9.130;2024-01-11T05:48:45;26.27;;;11.97;;
11907;SDS011;6014;47.690;9.130;2024-01-11T05:51:15;21.17;;;11.73;;
11907;SDS011;6014;47.690;9.130;2024-01-11T05:53:44;21.97;;;12.67;;
11907;SDS011;6014;47.690;9.130;2024-01-11T05:56:12;21.90;;;11.60;;
11907;SDS011;6014;47.690;9.130;2024-01-11T05:58:41;19.67;;;10.00;;
11907;SDS011;6014;47.690;9.130;2024-01-11T06:01:09;21.97;;;10.30;;
11907;SDS011;6014;47.690;9.130;2024-01-11T06:03:37;22.27;;;10.47;;
11907;SDS011;6014;47.690;9.130;2024-01-11T06:06:06;26.67;;;12.77;;
11907;SDS011;6014;47.690;9.130;2024-01-11T06:08:37;20.40;;;11.07;;
11907;SDS011;6014;47.690;9.130;2024-01-11T06:11:05;23.13;;;11.27;;
11907;SDS011;6014;47.690;9.130;2024-01-11T06:13:34;25.47;;;10.53;;
11907;SDS011;6014;47.690;9.130;2024-01-11T06:16:03;19.93;;;9.70;;
11907;SDS011;6014;47.690;9.130;2024-01-11T06:18:31;24.37;;;11.80;;
11907;SDS011;6014;47.690;9.130;2024-01-11T06:21:00;22.73;;;11.90;;
11907;SDS011;6014;47.690;9.130;2024-01-11T06:23:28;20.73;;;11.13;;
11907;SDS011;6014;47.690;9.130;2024-01-11T06:25:58;17.60;;;11.23;;
11907;SDS011;6014;47.690;9.130;2024-01-11T06:28:27;19.73;;;10.40;;
11907;SDS011;6014;47.690;9.130;2024-01-11T06:30:56;22.37;;;11.60;;
11907;SDS011;6014;47.690;9.130;2024-01-11T06:33:25;19.33;;;10.10;;
11907;SDS011;6014;47.690;9.130;2024-01-11T06:35:54;23.83;;;11.53;;
11907;SDS011;6014;47.690;9.130;2024-01-11T06:38:22;19.00;;;11.50;;
11907;SDS011;6014;47.690;9.130;2024-01-11T06:40:51;21.80;;;11.37;;
11907;SDS011;6014;47.690;9.130;2024-01-11T06:43:20;20.80;;;10.67;;
11907;SDS011;6014;47.690;9.130;2024-01-11T06:45:49;16.60;;;10.80;;
11907;SDS011;6014;47.690;9.130;2024-01-11T06:48:32;18.87;;;9.23;;
11907;SDS011;6014;47.690;9.130;2024-01-11T06:51:01;23.23;;;11.83;;
11907;SDS011;6014;47.690;9.130;2024-01-11T06:53:29;18.87;;;10.13;;
11907;SDS011;6014;47.690;9.130;2024-01-11T06:55:58;18.67;;;10.20;;
11907;SDS011;6014;47.690;9.130;2024-01-11T06:58:28;25.40;;;10.57;;
11907;SDS011;6014;47.690;9.130;2024-01-11T07:00:56;18.27;;;11.03;;
11907;SDS011;6014;47.690;9.130;2024-01-11T07:03:24;21.23;;;10.30;;
11907;SDS011;6014;47.690;9.130;2024-01-11T07:05:53;17.57;;;8.87;;
11907;SDS011;6014;47.690;9.130;2024-01-11T07:08:21;24.40;;;10.20;;
11907;SDS011;6014;47.690;9.130;2024-01-11T07:10:49;24.73;;;10.70;;
11907;SDS011;6014;47.690;9.130;2024-01-11T07:13:18;20.30;;;9.27;;
11907;SDS011;6014;47.690;9.130;2024-01-11T07:15:47;27.53;;;11.17;;
11907;SDS011;6014;47.690;9.130;2024-01-11T07:18:18;25.90;;;11.50;;
11907;SDS011;6014;47.690;9.130;2024-01-11T07:20:46;18.57;;;9.30;;
11907;SDS011;6014;47.690;9.130;2024-01-11T07:23:15;24.47;;;11.97;;
11907;SDS011;6014;47.690;9.130;2024-01-11T07:25:43;21.87;;;11.80;;
11907;SDS011;6014;47.690;9.130;2024-01-11T07:28:11;22.10;;;11.83;;
11907;SDS011;6014;47.690;9.130;2024-01-11T07:30:40;18.67;;;10.00;;
11907;SDS011;6014;47.690;9.130;2024-01-11T07:33:10;21.87;;;9.73;;
11907;SDS011;6014;47.690;9.130;2024-01-11T07:35:39;20.57;;;10.10;;
11907;SDS011;6014;47.690;9.130;2024-01-11T07:38:07;20.50;;;9.80;;
11907;SDS011;6014;47.690;9.130;2024-01-11T07:40:35;19.07;;;10.37;;
11907;SDS011;6014;47.690;9.130;2024-01-11T07:43:07;20.27;;;9.13;;
11907;SDS011;6014;47.690;9.130;2024-01-11T07:45:36;23.50;;;10.07;;
11907;SDS011;6014;47.690;9.130;2024-01-11T07:48:04;14.60;;;9.50;;
11907;SDS011;6014;47.690;9.130;2024-01-11T07:50:34;15.70;;;8.10;;
11907;SDS011;6014;47.690;9.130;2024-01-11T07:53:03;22.97;;;10.00;;
11907;SDS011;6014;47.690;9.130;2024-01-11T07:55:32;20.10;;;9.33;;
11907;SDS011;6014;47.690;9.130;2024-01-11T07:58:01;19.83;;;11.03;;
11907;SDS011;6014;47.690;9.130;2024-01-11T08:00:29;18.47;;;10.13;;
11907;SDS011;6014;47.690;9.130;2024-01-11T08:02:57;20.77;;;10.67;;
11907;SDS011;6014;47.690;9.130;2024-01-11T08:05:26;20.60;;;9.50;;
11907;SDS011;6014;47.690;9.130;2024-01-11T08:07:55;18.77;;;8.57;;
11907;SDS011;6014;47.690;9.130;2024-01-11T08:10:27;19.30;;;8.83;;
11907;SDS011;6014;47.690;9.130;2024-01-11T08:12:56;23.40;;;9.67;;
11907;SDS011;6014;47.690;9.130;2024-01-11T08:15:25;23.23;;;11.67;;
11907;SDS011;6014;47.690;9.130;2024-01-11T08:17:54;26.33;;;10.20;;
11907;SDS011;6014;47.690;9.130;2024-01-11T08:20:22;22.23;;;9.80;;
11907;SDS011;6014;47.690;9.130;2024-01-11T08:22:51;19.37;;;8.47;;
11907;SDS011;6014;47.690;9.130;2024-01-11T08:25:22;20.40;;;9.53;;
11907;SDS011;6014;47.690;9.130;2024-01-11T08:27:50;19.10;;;9.47;;
11907;SDS011;6014;47.690;9.130;2024-01-11T08:30:18;21.07;;;10.03;;
11907;SDS011;6014;47.690;9.130;2024-01-11T08:32:55;22.97;;;10.33;;
11907;SDS011;6014;47.690;9.130;2024-01-11T08:35:23;17.57;;;9.43;;
11907;SDS011;6014;47.690;9.130;2024-01-11T08:40:37;18.23;;;8.50;;
11907;SDS011;6014;47.690;9.130;2024-01-11T08:43:05;16.37;;;9.70;;
11907;SDS011;6014;47.690;9.130;2024-01-11T08:45:40;16.23;;;8.47;;
11907;SDS011;6014;47.690;9.130;2024-01-11T08:50:42;23.00;;;9.03;;
11907;SDS011;6014;47.690;9.130;2024-01-11T08:53:10;19.67;;;9.87;;
11907;SDS011;6014;47.690;9.130;2024-01-11T08:55:40;16.53;;;8.57;;
11907;SDS011;6014;47.690;9.130;2024-01-11T09:01:19;22.57;;;9.07;;
11907;SDS011;6014;47.690;9.130;2024-01-11T09:03:48;22.77;;;9.63;;
11907;SDS011;6014;47.690;9.130;2024-01-11T09:06:17;19.27;;;10.10;;
11907;SDS011;6014;47.690;9.130;2024-01-11T09:08:45;15.97;;;8.97;;
11907;SDS011;6014;47.690;9.130;2024-01-11T09:11:15;18.70;;;8.80;;
11907;SDS011;6014;47.690;9.130;2024-01-11T09:13:45;18.90;;;9.43;;
11907;SDS011;6014;47.690;9.130;2024-01-11T09:16:14;17.80;;;8.43;;
11907;SDS011;6014;47.690;9.130;2024-01-11T09:18:43;17.23;;;8.77;;
11907;SDS011;6014;47.690;9.130;2024-01-11T09:21:11;20.40;;;9.10;;
11907;SDS011;6014;47.690;9.130;2024-01-11T09:23:40;20.97;;;9.73;;
11907;SDS011;6014;47.690;9.130;2024-01-11T09:26:08;18.53;;;9.57;;
11907;SDS011;6014;47.690;9.130;2024-01-11T09:28:38;17.57;;;8.93;;
11907;SDS011;6014;47.690;9.130;2024-01-11T09:31:06;20.50;;;9.53;;
11907;SDS011;6014;47.690;9.130;2024-01-11T09:33:34;18.73;;;8.97;;
11907;SDS011;6014;47.690;9.130;2024-01-11T09:36:05;23.20;;;10.33;;
11907;SDS011;6014;47.690;9.130;2024-01-11T09:38:35;16.13;;;7.73;;
11907;SDS011;6014;47.690;9.130;2024-01-11T09:43:42;16.87;;;9.50;;
11907;SDS011;6014;47.690;9.130;2024-01-11T09:46:11;18.53;;;8.80;;
11907;SDS011;6014;47.690;9.130;2024-01-11T09:48:40;22.13;;;10.40;;
11907;SDS011;6014;47.690;9.130;2024-01-11T09:51:11;17.93;;;9.43;;
11907;SDS011;6014;47.690;9.130;2024-01-11T09:53:40;16.13;;;8.60;;
11907;SDS011;6014;47.690;9.130;2024-01-11T09:56:09;23.30;;;9.87;;
11907;SDS011;6014;47.690;9.130;2024-01-11T09:58:53;16.20;;;8.70;;
11907;SDS011;6014;47.690;9.130;2024-01-11T10:01:23;17.13;;;8.37;;
11907;SDS011;6014;47.690;9.130;2024-01-11T10:03:55;20.10;;;9.90;;
11907;SDS011;6014;47.690;9.130;2024-01-11T10:06:23;24.83;;;9.83;;
11907;SDS011;6014;47.690;9.130;2024-01-11T10:08:53;20.67;;;9.03;;
11907;SDS011;6014;47.690;9.130;2024-01-11T10:11:22;16.17;;;7.73;;
11907;SDS011;6014;47.690;9.130;2024-01-11T10:13:57;14.13;;;6.63;;
11907;SDS011;6014;47.690;9.130;2024-01-11T10:16:34;21.00;;;10.03;;
11907;SDS011;6014;47.690;9.130;2024-01-11T10:19:03;18.57;;;9.60;;
11907;SDS011;6014;47.690;9.130;2024-01-11T10:21:33;18.90;;;7.90;;
11907;SDS011;6014;47.690;9.130;2024-01-11T10:24:06;19.40;;;8.70;;
11907;SDS011;6014;47.690;9.130;2024-01-11T10:26:35;15.07;;;7.73;;
11907;SDS011;6014;47.690;9.130;2024-01-11T10:29:06;21.13;;;8.83;;
11907;SDS011;6014;47.690;9.130;2024-01-11T10:31:39;17.90;;;7.80;;
11907;SDS011;6014;47.690;9.130;2024-01-11T10:34:09;17.07;;;8.43;;
11907;SDS011;6014;47.690;9.130;2024-01-11T10:36:37;18.20;;;9.33;;
11907;SDS011;6014;47.690;9.130;2024-01-11T10:39:07;19.10;;;8.33;;
11907;SDS011;6014;47.690;9.130;2024-01-11T10:41:39;19.27;;;8.83;;
11907;SDS011;6014;47.690;9.130;2024-01-11T10:44:11;17.60;;;9.43;;
11907;SDS011;6014;47.690;9.130;2024-01-11T10:46:47;15.23;;;7.77;;
11907;SDS011;6014;47.690;9.130;2024-01-11T10:49:17;16.40;;;8.67;;
11907;SDS011;6014;47.690;9.130;2024-01-11T10:51:49;19.77;;;8.13;;
11907;SDS011;6014;47.690;9.130;2024-01-11T10:54:26;15.03;;;7.33;;
11907;SDS011;6014;47.690;9.130;2024-01-11T10:56:57;14.27;;;7.93;;
11907;SDS011;6014;47.690;9.130;2024-01-11T10:59:32;13.43;;;6.97;;
11907;SDS011;6014;47.690;9.130;2024-01-11T11:02:08;18.57;;;9.07;;
11907;SDS011;6014;47.690;9.130;2024-01-11T11:04:50;19.03;;;9.20;;
11907;SDS011;6014;47.690;9.130;2024-01-11T11:07:22;18.37;;;8.40;;
11907;SDS011;6014;47.690;9.130;2024-01-11T11:09:53;21.03;;;8.73;;
11907;SDS011;6014;47.690;9.130;2024-01-11T11:12:27;16.70;;;8.20;;
11907;SDS011;6014;47.690;9.130;2024-01-11T11:14:57;17.03;;;8.00;;
11907;SDS011;6014;47.690;9.130;2024-01-11T11:17:27;17.10;;;8.13;;
11907;SDS011;6014;47.690;9.130;2024-01-11T11:19:56;15.37;;;8.43;;
11907;SDS011;6014;47.690;9.130;2024-01-11T11:22:26;14.87;;;6.97;;
11907;SDS011;6014;47.690;9.130;2024-01-11T11:25:02;17.23;;;8.60;;
11907;SDS011;6014;47.690;9.130;2024-01-11T11:27:32;15.47;;;6.93;;
11907;SDS011;6014;47.690;9.130;2024-01-11T11:30:02;14.63;;;7.20;;
11907;SDS011;6014;47.690;9.130;2024-01-11T11:32:35;18.67;;;7.63;;
11907;SDS011;6014;47.690;9.130;2024-01-11T11:35:04;15.37;;;7.03;;
11907;SDS011;6014;47.690;9.130;2024-01-11T11:37:36;14.53;;;7.17;;
11907;SDS011;6014;47.690;9.130;2024-01-11T11:40:05;12.97;;;6.90;;
11907;SDS011;6014;47.690;9.130;2024-01-11T11:42:36;18.73;;;8.83;;
11907;SDS011;6014;47.690;9.130;2024-01-11T11:45:08;17.00;;;8.87;;
11907;SDS011;6014;47.690;9.130;2024-01-11T11:47:38;15.47;;;8.40;;
11907;SDS011;6014;47.690;9.130;2024-01-11T11:50:09;14.53;;;6.80;;
11907;SDS011;6014;47.690;9.130;2024-01-11T11:52:40;14.43;;;7.50;;
11907;SDS011;6014;47.690;9.130;2024-01-11T11:55:09;17.03;;;7.30;;
11907;SDS011;6014;47.690;9.130;2024-01-11T11:57:39;11.40;;;6.53;;
11907;SDS011;6014;47.690;9.130;2024-01-11T12:00:13;14.17;;;7.20;;
11907;SDS011;6014;47.690;9.130;2024-01-11T12:02:43;16.00;;;8.20;;
11907;SDS011;6014;47.690;9.130;2024-01-11T12:05:12;15.13;;;7.57;;
11907;SDS011;6014;47.690;9.130;2024-01-11T12:07:40;12.47;;;6.27;;
11907;SDS011;6014;47.690;9.130;2024-01-11T12:10:09;16.43;;;7.83;;
11907;SDS011;6014;47.690;9.130;2024-01-11T12:12:38;12.10;;;5.93;;
11907;SDS011;6014;47.690;9.130;2024-01-11T12:15:07;12.97;;;6.10;;
11907;SDS011;6014;47.690;9.130;2024-01-11T12:17:39;9.03;;;5.20;;
11907;SDS011;6014;47.690;9.130;2024-01-11T12:20:09;11.73;;;6.67;;
11907;SDS011;6014;47.690;9.130;2024-01-11T12:22:39;12.77;;;6.27;;
11907;SDS011;6014;47.690;9.130;2024-01-11T12:25:07;11.87;;;6.37;;
11907;SDS011;6014;47.690;9.130;2024-01-11T12:27:36;9.80;;;5.63;;
11907;SDS011;6014;47.690;9.130;2024-01-11T12:30:06;13.13;;;6.60;;
11907;SDS011;6014;47.690;9.130;2024-01-11T12:32:39;15.90;;;6.77;;
11907;SDS011;6014;47.690;9.130;2024-01-11T12:35:07;11.27;;;6.47;;
11907;SDS011;6014;47.690;9.130;2024-01-11T12:37:36;13.23;;;6.33;;
11907;SDS011;6014;47.690;9.130;2024-01-11T12:40:05;10.80;;;5.43;;
11907;SDS011;6014;47.690;9.130;2024-01-11T12:42:36;13.67;;;6.23;;
11907;SDS011;6014;47.690;9.130;2024-01-11T12:45:05;15.37;;;7.90;;
11907;SDS011;6014;47.690;9.130;2024-01-11T12:47:39;14.00;;;6.50;;
11907;SDS011;6014;47.690;9.130;2024-01-11T12:50:07;13.13;;;7.00;;
11907;SDS011;6014;47.690;9.130;2024-01-11T12:52:38;15.27;;;7.47;;
11907;SDS011;6014;47.690;9.130;2024-01-11T12:55:08;10.63;;;5.57;;
11907;SDS011;6014;47.690;9.130;2024-01-11T12:58:02;11.57;;;5.87;;
11907;SDS011;6014;47.690;9.130;2024-01-11T13:00:41;17.40;;;6.63;;
11907;SDS011;6014;47.690;9.130;2024-01-11T13:03:11;13.23;;;5.60;;
11907;SDS011;6014;47.690;9.130;2024-01-11T13:05:41;14.13;;;6.63;;
11907;SDS011;6014;47.690;9.130;2024-01-11T13:08:10;14.17;;;7.00;;
11907;SDS011;6014;47.690;9.130;2024-01-11T13:13:10;11.20;;;5.73;;
11907;SDS011;6014;47.690;9.130;2024-01-11T13:15:38;14.43;;;7.33;;
11907;SDS011;6014;47.690;9.130;2024-01-11T13:18:07;13.30;;;6.27;;
11907;SDS011;6014;47.690;9.130;2024-01-11T13:20:38;15.53;;;6.27;;
11907;SDS011;6014;47.690;9.130;2024-01-11T13:23:13;14.90;;;5.83;;
11907;SDS011;6014;47.690;9.130;2024-01-11T13:25:43;11.83;;;6.50;;
11907;SDS011;6014;47.690;9.130;2024-01-11T13:28:13;15.83;;;6.47;;
11907;SDS011;6014;47.690;9.130;2024-01-11T13:30:42;13.83;;;6.97;;
11907;SDS011;6014;47.690;9.130;2024-01-11T13:33:12;11.73;;;6.03;;
11907;SDS011;6014;47.690;9.130;2024-01-11T13:35:43;12.73;;;6.50;;
11907;SDS011;6014;47.690;9.130;2024-01-11T13:38:12;11.57;;;5.23;;
11907;SDS011;6014;47.690;9.130;2024-01-11T13:40:41;13.30;;;6.57;;
11907;SDS011;6014;47.690;9.130;2024-01-11T13:43:10;15.60;;;6.63;;
11907;SDS011;6014;47.690;9.130;2024-01-11T13:45:39;16.23;;;7.57;;
11907;SDS011;6014;47.690;9.130;2024-01-11T13:48:07;14.90;;;7.30;;
11907;SDS011;6014;47.690;9.130;2024-01-11T13:50:36;12.13;;;6.63;;
11907;SDS011;6014;47.690;9.130;2024-01-11T13:53:06;13.07;;;6.70;;
11907;SDS011;6014;47.690;9.130;2024-01-11T13:55:34;16.43;;;5.73;;
11907;SDS011;6014;47.690;9.130;2024-01-11T13:58:16;15.33;;;6.93;;
11907;SDS011;6014;47.690;9.130;2024-01-11T14:00:47;13.90;;;5.90;;
11907;SDS011;6014;47.690;9.130;2024-01-11T14:03:15;9.90;;;5.43;;
11907;SDS011;6014;47.690;9.130;2024-01-11T14:08:26;12.77;;;5.73;;
11907;SDS011;6014;47.690;9.130;2024-01-11T14:10:55;11.00;;;5.73;;
11907;SDS011;6014;47.690;9.130;2024-01-11T14:13:23;13.67;;;6.53;;
11907;SDS011;6014;47.690;9.130;2024-01-11T14:16:01;12.77;;;6.27;;
11907;SDS011;6014;47.690;9.130;2024-01-11T14:18:29;13.03;;;6.27;;
11907;SDS011;6014;47.690;9.130;2024-01-11T14:20:58;13.50;;;6.63;;
11907;SDS011;6014;47.690;9.130;2024-01-11T14:23:28;17.37;;;7.30;;
11907;SDS011;6014;47.690;9.130;2024-01-11T14:25:56;13.47;;;6.07;;
11907;SDS011;6014;47.690;9.130;2024-01-11T14:28:24;13.40;;;6.43;;
11907;SDS011;6014;47.690;9.130;2024-01-11T14:30:53;12.50;;;5.83;;
11907;SDS011;6014;47.690;9.130;2024-01-11T14:33:25;11.70;;;6.40;;
11907;SDS011;6014;47.690;9.130;2024-01-11T14:35:55;13.70;;;7.07;;
11907;SDS011;6014;47.690;9.130;2024-01-11T14:38:24;10.80;;;6.73;;
11907;SDS011;6014;47.690;9.130;2024-01-11T14:40:53;13.07;;;6.70;;
11907;SDS011;6014;47.690;9.130;2024-01-11T14:43:23;12.23;;;6.70;;
11907;SDS011;6014;47.690;9.130;2024-01-11T14:45:51;15.70;;;5.87;;
11907;SDS011;6014;47.690;9.130;2024-01-11T14:48:20;10.23;;;5.00;;
11907;SDS011;6014;47.690;9.130;2024-01-11T14:50:49;15.80;;;7.37;;
11907;SDS011;6014;47.690;9.130;2024-01-11T14:55:49;12.77;;;7.40;;
11907;SDS011;6014;47.690;9.130;2024-01-11T14:58:19;12.87;;;7.30;;
11907;SDS011;6014;47.690;9.130;2024-01-11T15:00:47;10.90;;;6.43;;
11907;SDS011;6014;47.690;9.130;2024-01-11T15:03:16;14.87;;;7.47;;
11907;SDS011;6014;47.690;9.130;2024-01-11T15:05:46;18.20;;;7.10;;
11907;SDS011;6014;47.690;9.130;2024-01-11T15:08:14;17.17;;;6.97;;
11907;SDS011;6014;47.690;9.130;2024-01-11T15:10:42;14.97;;;6.33;;
11907;SDS011;6014;47.690;9.130;2024-01-11T15:13:11;13.50;;;7.67;;
11907;SDS011;6014;47.690;9.130;2024-01-11T15:15:40;15.63;;;6.17;;
11907;SDS011;6014;47.690;9.130;2024-01-11T15:18:09;13.17;;;6.10;;
11907;SDS011;6014;47.690;9.130;2024-01-11T15:20:37;18.13;;;8.03;;
11907;SDS011;6014;47.690;9.130;2024-01-11T15:23:07;13.60;;;6.53;;
11907;SDS011;6014;47.690;9.130;2024-01-11T15:25:36;16.60;;;7.33;;